Time;durP1;ratioP1;P1;durP2;ratioP2;P2;SDS_P1;SDS_P2;PMS_P1;PMS_P2;Temp;Humidity;BMP_temperature;BMP_pressure;BME280_temperature;BME280_humidity;BME280_pressure;Samples;Min_cycle;Max_cycle;Signal;HPM_P1;HPM_P2
2021/12/01 00:02:10;;;;;;;9.98;8.20;;;;;;;8.29;100.00;99988.94;4874191;29;20057;-93
2021/12/01 00:04:43;;;;;;;9.50;7.32;;;;;;;7.94;100.00;99916.50;4843586;29;20132;-93
2021/12/01 00:07:20;;;;;;;9.02;7.65;;;;;;;8.65;100.00;100027.94;4848418;29;20503;-93
2021/12/01 00:09:52;;;;;;;9.75;7.80;;;;;;;7.89;100.00;99909.88;4864799;29;20057;-93
2021/12/01 00:12:21;;;;;;;10.68;8.30;;;;;;;8.59;100.00;100014.28;4860602;29;20586;-94
2021/12/01 00:14:47;;;;;;;9.25;7.80;;;;;;;8.15;100.00;99934.16;4876562;29;20030;-93
2021/12/01 00:17:17;;;;;;;10.50;7.50;;;;;;;7.89;100.00;99876.66;4861484;29;20026;-93
2021/12/01 00:19:53;;;;;;;7.45;6.28;;;;;;;7.97;100.00;99913.34;4876883;29;20041;-93
2021/12/01 00:22:24;;;;;;;7.80;6.55;;;;;;;7.92;100.00;99881.59;4861416;29;20034;-92
2021/12/01 00:24:50;;;;;;;8.35;5.70;;;;;;;8.13;100.00;99891.16;4845957;29;20061;-94
2021/12/01 00:27:19;;;;;;;7.47;6.10;;;;;;;8.01;100.00;99880.25;4861592;29;20022;-94
2021/12/01 00:29:44;;;;;;;8.90;6.80;;;;;;;8.23;100.00;99899.59;4876641;29;20082;-92
2021/12/01 00:32:11;;;;;;;9.63;6.60;;;;;;;8.26;100.00;99895.63;4860946;29;20030;-93
2021/12/01 00:34:39;;;;;;;8.45;6.40;;;;;;;7.87;100.00;99819.34;4875769;29;20503;-93
2021/12/01 00:37:07;;;;;;;8.85;6.30;;;;;;;8.30;100.00;99875.22;4857999;29;20050;-93
2021/12/01 00:39:38;;;;;;;7.97;6.07;;;;;;;7.87;100.00;99809.34;4872738;29;20071;-91
2021/12/01 00:42:44;;;;;;;7.30;5.75;;;;;;;8.25;100.00;99867.78;4859192;29;20056;-93
2021/12/01 00:45:32;;;;;;;9.50;6.22;;;;;;;8.57;100.00;99912.78;4867693;29;20034;-95
2021/12/01 00:47:58;;;;;;;8.38;6.60;;;;;;;7.67;100.00;99787.94;4875500;29;20090;-93
2021/12/01 00:50:33;;;;;;;8.40;5.75;;;;;;;7.84;100.00;99804.41;4844477;29;20038;-93
2021/12/01 00:53:05;;;;;;;8.05;6.25;;;;;;;8.18;100.00;99867.03;4851197;29;20069;-93
2021/12/01 00:55:43;;;;;;;8.82;6.95;;;;;;;8.47;100.00;99894.38;4853332;29;20392;-93
2021/12/01 00:58:12;;;;;;;14.40;7.28;;;;;;;7.71;100.00;99777.53;4852963;29;20068;-92
2021/12/01 01:00:42;;;;;;;9.85;6.82;;;;;;;7.85;100.00;99797.09;4861669;29;20492;-91
2021/12/01 01:03:08;;;;;;;8.57;6.43;;;;;;;7.81;100.00;99785.94;4848313;29;20053;-92
2021/12/01 01:05:37;;;;;;;11.40;7.05;;;;;;;8.34;100.00;99862.91;4832229;29;20105;-92
2021/12/01 01:08:17;;;;;;;7.25;6.03;;;;;;;7.69;100.00;99755.31;4863766;29;20531;-92
2021/12/01 01:11:08;;;;;;;9.48;7.60;;;;;;;8.31;100.00;99843.59;4862357;29;20412;-90
2021/12/01 01:16:26;;;;;;;10.80;7.80;;;;;;;8.14;100.00;99824.47;4847757;29;20121;-90
2021/12/01 01:19:04;;;;;;;12.02;8.52;;;;;;;7.82;100.00;99765.97;4862586;29;20399;-91
2021/12/01 01:21:36;;;;;;;12.23;8.65;;;;;;;8.30;100.00;99842.78;4847519;29;20034;-92
2021/12/01 01:24:03;;;;;;;11.50;8.60;;;;;;;7.72;100.00;99746.75;4852320;29;20054;-92
2021/12/01 01:26:30;;;;;;;13.30;10.27;;;;;;;7.68;100.00;99741.00;4853436;29;20057;-91
2021/12/01 01:28:56;;;;;;;14.40;10.35;;;;;;;8.02;100.00;99784.69;4870141;29;20520;-92
2021/12/01 01:31:22;;;;;;;14.50;10.65;;;;;;;7.63;100.00;99713.84;4866736;29;20560;-92
2021/12/01 01:33:50;;;;;;;15.38;11.35;;;;;;;8.22;100.00;99834.97;4862520;29;20037;-92
2021/12/01 01:36:18;;;;;;;14.00;10.55;;;;;;;7.96;100.00;99776.63;4859342;29;20037;-92
2021/12/01 01:38:47;;;;;;;13.43;10.55;;;;;;;7.63;100.00;99731.91;4836104;29;20048;-92
2021/12/01 01:41:16;;;;;;;13.50;10.95;;;;;;;7.53;100.00;99732.44;4835882;29;20026;-91
2021/12/01 01:43:48;;;;;;;12.55;9.48;;;;;;;7.51;100.00;99707.53;4847073;29;20053;-92
2021/12/01 01:46:14;;;;;;;12.53;10.77;;;;;;;7.51;100.00;99713.75;4845161;29;20042;-92
2021/12/01 01:51:12;;;;;;;;;;;;;;;8.06;100.00;99794.00;4846425;29;20073;-92
2021/12/01 01:53:38;;;;;;;12.30;9.13;;;;;;;7.36;100.00;99689.00;4844357;29;19975;-92
2021/12/01 01:56:08;;;;;;;13.55;10.10;;;;;;;7.47;100.00;99704.44;4844664;29;20037;-91
2021/12/01 01:58:33;;;;;;;10.98;9.32;;;;;;;8.00;100.00;99803.00;4844268;29;20030;-91
2021/12/01 02:01:21;;;;;;;11.65;9.50;;;;;;;7.76;100.00;99739.88;4859477;29;20507;-91
2021/12/01 02:03:48;;;;;;;12.27;9.40;;;;;;;7.65;100.00;99719.84;4844284;29;20034;-90
2021/12/01 02:06:22;;;;;;;9.20;7.95;;;;;;;7.72;100.00;99744.06;4843459;29;20022;-91
2021/12/01 02:08:57;;;;;;;10.00;8.57;;;;;;;7.28;100.00;99652.34;4860007;29;20061;-92
2021/12/01 02:11:23;;;;;;;9.30;7.78;;;;;;;7.66;100.00;99709.84;4844631;29;20034;-93
2021/12/01 02:13:56;;;;;;;9.82;8.43;;;;;;;7.87;100.00;99735.63;4844779;29;20041;-91
2021/12/01 02:16:24;;;;;;;10.02;7.22;;;;;;;7.67;100.00;99696.13;4844669;29;20100;-92
2021/12/01 02:18:50;;;;;;;7.57;6.75;;;;;;;7.25;100.00;99631.19;4844547;29;20041;-91
2021/12/01 02:21:27;;;;;;;7.80;6.95;;;;;;;7.24;100.00;99616.03;4859705;29;20026;-92
2021/12/01 02:23:55;;;;;;;9.15;5.88;;;;;;;7.28;100.00;99648.78;4843825;29;20021;-92
2021/12/01 02:26:22;;;;;;;8.77;6.55;;;;;;;7.58;100.00;99648.09;4859056;29;20065;-91
2021/12/01 02:28:53;;;;;;;8.10;5.82;;;;;;;7.53;100.00;99654.97;4843293;29;20407;-91
2021/12/01 02:31:25;;;;;;;5.95;5.35;;;;;;;7.24;100.00;99612.53;4859764;29;20053;-91
2021/12/01 02:33:54;;;;;;;8.35;5.68;;;;;;;7.08;100.00;99568.91;4844737;29;20065;-91
2021/12/01 02:36:20;;;;;;;5.15;4.38;;;;;;;7.31;100.00;99613.28;4852764;29;20393;-91
2021/12/01 02:38:47;;;;;;;5.75;5.25;;;;;;;7.46;100.00;99642.59;4867241;29;20079;-92
2021/12/01 02:41:24;;;;;;;6.03;4.85;;;;;;;7.23;100.00;99600.91;4853844;29;20040;-91
2021/12/01 02:43:57;;;;;;;6.05;4.80;;;;;;;7.01;100.00;99547.41;4864966;29;20053;-92
2021/12/01 02:46:24;;;;;;;6.88;4.80;;;;;;;7.41;100.00;99629.78;4867827;29;20038;-92
2021/12/01 02:48:52;;;;;;;4.25;3.88;;;;;;;7.71;100.00;99613.63;4850301;29;20407;-91
2021/12/01 02:51:27;;;;;;;5.95;4.55;;;;;;;6.99;100.00;99554.88;4859387;29;20045;-92
2021/12/01 02:53:53;;;;;;;5.95;4.93;;;;;;;7.19;100.00;99560.06;4859617;29;20045;-92
2021/12/01 02:56:21;;;;;;;7.97;5.35;;;;;;;6.92;100.00;99532.53;4844838;29;20040;-92
2021/12/01 02:58:47;;;;;;;7.32;5.80;;;;;;;6.84;100.00;99520.19;4859542;29;20038;-92
2021/12/01 03:01:16;;;;;;;7.28;6.40;;;;;;;6.76;100.00;99507.03;4844174;29;20121;-92
2021/12/01 03:03:42;;;;;;;6.80;5.05;;;;;;;6.81;100.00;99509.84;4859259;29;20062;-92
2021/12/01 03:06:10;;;;;;;7.35;6.20;;;;;;;6.87;100.00;99528.91;4860114;29;20045;-91
2021/12/01 03:08:42;;;;;;;7.65;5.95;;;;;;;7.20;100.00;99582.47;4859007;29;20026;-92
2021/12/01 03:11:08;;;;;;;8.50;6.38;;;;;;;6.93;100.00;99522.59;4846169;29;20042;-91
2021/12/01 03:13:37;;;;;;;7.72;6.75;;;;;;;6.76;100.00;99490.84;4846530;29;20021;-92
2021/12/01 03:16:02;;;;;;;7.95;6.13;;;;;;;7.08;100.00;99544.63;4864078;29;20026;-91
2021/12/01 03:18:28;;;;;;;6.70;5.72;;;;;;;6.81;100.00;99464.03;4852527;29;20065;-92
2021/12/01 03:20:54;;;;;;;7.15;6.05;;;;;;;7.24;100.00;99564.78;4851744;29;20041;-92
2021/12/01 03:23:23;;;;;;;7.35;6.65;;;;;;;7.06;100.00;99521.63;4854483;29;20070;-92
2021/12/01 03:25:52;;;;;;;7.60;6.07;;;;;;;6.80;100.00;99467.75;4838999;29;20571;-92
2021/12/01 03:28:26;;;;;;;8.55;6.80;;;;;;;6.82;100.00;99476.47;4855674;29;20090;-93
2021/12/01 03:30:54;;;;;;;8.05;6.57;;;;;;;6.85;100.00;99448.25;4871539;29;20025;-93
2021/12/01 03:33:22;;;;;;;7.47;6.45;;;;;;;6.84;100.00;99470.84;4871854;29;20046;-92
2021/12/01 03:35:50;;;;;;;10.90;6.97;;;;;;;6.73;100.00;99434.69;4854335;29;20030;-92
2021/12/01 03:38:21;;;;;;;8.00;6.47;;;;;;;6.79;100.00;99441.03;4850775;29;20053;-91
2021/12/01 03:40:52;;;;;;;8.57;6.78;;;;;;;7.07;100.00;99496.31;4864304;29;20042;-91
2021/12/01 03:43:21;;;;;;;7.32;6.45;;;;;;;6.71;100.00;99417.09;4849036;29;20059;-91
2021/12/01 03:45:56;;;;;;;10.30;6.80;;;;;;;6.48;100.00;99400.53;4851862;29;20049;-92
2021/12/01 03:48:24;;;;;;;7.53;6.70;;;;;;;6.51;100.00;99396.56;4853488;29;20056;-93
2021/12/01 03:50:54;;;;;;;9.52;7.47;;;;;;;6.47;100.00;99400.75;4849268;29;20042;-93
2021/12/01 03:53:32;;;;;;;8.80;5.65;;;;;;;6.85;100.00;99443.66;4839789;29;20048;-94
2021/12/01 03:55:59;;;;;;;9.35;7.40;;;;;;;6.96;100.00;99433.16;4856852;29;20056;-93
2021/12/01 03:58:32;;;;;;;9.73;7.03;;;;;;;6.49;100.00;99356.34;4857606;29;20025;-93
2021/12/01 04:01:01;;;;;;;11.15;8.05;;;;;;;6.47;100.00;99346.88;4874689;29;20018;-93
2021/12/01 04:03:27;;;;;;;7.88;6.22;;;;;;;6.98;100.00;99417.56;4858693;29;20010;-92
2021/12/01 04:05:52;;;;;;;10.43;8.00;;;;;;;6.68;100.00;99376.03;4859073;29;20037;-93
2021/12/01 04:08:21;;;;;;;8.25;7.05;;;;;;;6.78;100.00;99393.56;4873365;29;20046;-91
2021/12/01 04:10:49;;;;;;;8.45;7.07;;;;;;;6.42;100.00;99335.94;4867867;29;20552;-92
2021/12/01 04:13:17;;;;;;;9.45;7.38;;;;;;;6.49;100.00;99342.06;4852898;29;20030;-91
2021/12/01 04:15:43;;;;;;;8.95;7.40;;;;;;;6.82;100.00;99389.34;4867057;29;20496;-91
2021/12/01 04:18:12;;;;;;;9.02;7.00;;;;;;;6.54;100.00;99336.00;4850586;29;20061;-91
2021/12/01 04:20:37;;;;;;;8.43;6.05;;;;;;;6.78;100.00;99385.47;4849055;29;20034;-92
2021/12/01 04:23:06;;;;;;;9.18;6.07;;;;;;;6.79;100.00;99371.78;4844513;29;20030;-92
2021/12/01 04:25:32;;;;;;;8.63;5.63;;;;;;;6.41;100.00;99310.06;4846963;29;20034;-92
2021/12/01 04:28:06;;;;;;;7.45;5.53;;;;;;;6.18;100.00;99279.22;4844955;29;20057;-93
2021/12/01 04:30:35;;;;;;;6.97;5.07;;;;;;;6.57;100.00;99322.06;4866170;29;20030;-91
2021/12/01 04:33:06;;;;;;;6.57;5.30;;;;;;;6.19;100.00;99262.03;4856440;29;20030;-92
2021/12/01 04:35:33;;;;;;;4.47;4.07;;;;;;;6.28;100.00;99265.25;4858033;29;20050;-92
2021/12/01 04:37:59;;;;;;;8.05;5.32;;;;;;;6.27;100.00;99277.06;4874039;29;20495;-91
2021/12/01 04:40:28;;;;;;;6.80;4.75;;;;;;;6.12;100.00;99213.63;4855445;29;20026;-92
2021/12/01 04:42:56;;;;;;;6.15;4.20;;;;;;;6.21;100.00;99235.69;4845808;29;20045;-92
2021/12/01 04:45:30;;;;;;;5.78;4.55;;;;;;;6.69;100.00;99306.81;4846814;29;20488;-93
2021/12/01 04:47:55;;;;;;;5.95;4.63;;;;;;;6.79;100.00;99303.53;4867253;29;20026;-92
2021/12/01 04:50:25;;;;;;;5.47;4.13;;;;;;;6.14;100.00;99199.94;4874638;29;20038;-92
2021/12/01 04:52:55;;;;;;;7.57;4.53;;;;;;;6.22;100.00;99209.59;4861603;29;20032;-93
2021/12/01 04:55:26;;;;;;;7.43;4.45;;;;;;;6.14;100.00;99186.47;4857467;29;20496;-93
2021/12/01 04:57:52;;;;;;;8.63;5.25;;;;;;;6.22;100.00;99201.50;4849915;29;20038;-91
2021/12/01 05:00:21;;;;;;;5.82;4.43;;;;;;;6.27;100.00;99190.84;4844884;29;20403;-90
2021/12/01 05:02:47;;;;;;;5.18;4.47;;;;;;;6.83;100.00;99297.47;4844536;29;20126;-90
2021/12/01 05:05:19;;;;;;;9.15;5.10;;;;;;;6.22;100.00;99207.72;4844274;29;20377;-90
2021/12/01 05:07:51;;;;;;;5.75;4.70;;;;;;;6.47;100.00;99239.09;4859569;29;20044;-90
2021/12/01 05:10:17;;;;;;;6.30;4.93;;;;;;;6.18;100.00;99203.00;4859053;29;20038;-90
2021/12/01 05:12:43;;;;;;;6.82;4.30;;;;;;;6.80;100.00;99275.53;4843813;29;20030;-90
2021/12/01 05:15:08;;;;;;;6.85;4.57;;;;;;;6.55;100.00;99251.41;4843659;29;20124;-90
2021/12/01 05:17:34;;;;;;;6.60;4.50;;;;;;;6.10;100.00;99188.00;4859577;29;20044;-91
2021/12/01 05:20:00;;;;;;;6.75;4.13;;;;;;;6.36;100.00;99224.50;4844406;29;20030;-91
2021/12/01 05:22:26;;;;;;;5.30;4.55;;;;;;;6.06;100.00;99182.22;4844186;29;20037;-91
2021/12/01 05:24:54;;;;;;;6.20;4.55;;;;;;;6.44;100.00;99234.16;4844464;29;20091;-91
2021/12/01 05:27:20;;;;;;;6.32;4.07;;;;;;;6.74;100.00;99301.53;4844209;29;20034;-92
2021/12/01 05:29:46;;;;;;;4.38;3.72;;;;;;;6.77;100.00;99266.03;4860055;29;20040;-91
2021/12/01 05:32:14;;;;;;;5.45;3.17;;;;;;;6.71;100.00;99285.81;4859266;29;20038;-91
2021/12/01 05:34:40;;;;;;;7.13;4.07;;;;;;;6.09;100.00;99154.03;4859390;29;20033;-91
2021/12/01 05:37:05;;;;;;;4.30;3.90;;;;;;;6.05;100.00;99158.22;4844439;29;20026;-91
2021/12/01 05:39:34;;;;;;;4.30;3.78;;;;;;;6.32;100.00;99207.19;4844360;29;20090;-92
2021/12/01 05:42:03;;;;;;;5.60;3.55;;;;;;;6.43;100.00;99209.06;4846885;29;20409;-92
2021/12/01 05:44:30;;;;;;;4.35;3.40;;;;;;;6.68;100.00;99243.97;4847433;29;20041;-92
2021/12/01 05:46:56;;;;;;;3.85;3.25;;;;;;;6.36;100.00;99221.81;4862310;29;20052;-91
2021/12/01 05:49:24;;;;;;;3.05;2.75;;;;;;;6.08;100.00;99118.22;4832188;29;20033;-91
2021/12/01 05:51:56;;;;;;;3.55;3.25;;;;;;;5.87;100.00;99106.00;4847353;29;20057;-92
2021/12/01 05:54:25;;;;;;;4.30;2.58;;;;;;;5.86;100.00;99090.09;4846829;29;20066;-92
2021/12/01 05:56:59;;;;;;;3.88;2.70;;;;;;;6.06;100.00;99119.47;4846929;29;20033;-91
2021/12/01 05:59:25;;;;;;;3.92;2.63;;;;;;;6.06;100.00;99106.81;4861899;29;20049;-91
2021/12/01 06:01:50;;;;;;;2.40;2.20;;;;;;;6.07;100.00;99135.41;4861716;29;20033;-90
2021/12/01 06:04:18;;;;;;;5.40;2.60;;;;;;;6.16;100.00;99114.38;4861673;29;20464;-92
2021/12/01 06:06:44;;;;;;;2.95;2.63;;;;;;;5.95;100.00;99076.09;4845498;29;20108;-88
2021/12/01 06:09:09;;;;;;;3.97;2.80;;;;;;;6.01;100.00;99073.56;4845837;29;20121;-93
2021/12/01 06:11:51;;;;;;;4.10;3.17;;;;;;;6.19;100.00;99107.72;4847910;29;20098;-92
2021/12/01 06:14:40;;;;;;;2.63;2.42;;;;;;;6.82;100.00;99168.28;4847708;29;20030;-94
2021/12/01 06:17:30;;;;;;;3.75;2.70;;;;;;;6.48;100.00;99125.72;4866878;29;20025;-93
2021/12/01 06:20:11;;;;;;;4.03;3.08;;;;;;;5.86;100.00;99031.72;4875880;29;20033;-94
2021/12/01 06:22:55;;;;;;;;;;;;;;;;;;;;;
2021/12/01 06:25:21;;;;;;;3.70;3.10;;;;;;;6.20;100.00;99069.78;4869873;29;20570;-93
2021/12/01 06:27:54;;;;;;;3.38;3.08;;;;;;;5.99;100.00;99041.47;4848619;29;20053;-93
2021/12/01 06:30:21;;;;;;;4.65;3.20;;;;;;;6.31;100.00;99076.22;4847493;29;20093;-92
2021/12/01 06:32:47;;;;;;;3.17;2.90;;;;;;;6.39;100.00;99077.75;4846945;29;20026;-91
2021/12/01 06:35:19;;;;;;;4.80;3.30;;;;;;;5.98;100.00;99010.25;4846674;29;20026;-93
2021/12/01 06:37:50;;;;;;;3.83;3.30;;;;;;;6.49;100.00;99097.69;4846810;29;20037;-91
2021/12/01 06:40:17;;;;;;;3.70;3.20;;;;;;;6.07;100.00;99016.13;4862099;29;20050;-91
2021/12/01 06:42:49;;;;;;;4.93;3.38;;;;;;;6.48;100.00;99084.44;4831513;29;20082;-91
2021/12/01 06:45:31;;;;;;;3.95;3.65;;;;;;;6.49;100.00;99081.53;4848812;29;20072;-96
2021/12/01 06:48:02;;;;;;;3.53;3.22;;;;;;;6.07;100.00;98995.41;4863560;29;20495;-94
2021/12/01 06:50:31;;;;;;;5.32;3.80;;;;;;;6.54;100.00;99067.38;4847292;29;20097;-94
2021/12/01 06:53:33;;;;;;;;;;;;;;;;;;;;;
2021/12/01 06:59:34;;;;;;;4.20;3.78;;;;;;;6.84;100.00;99113.09;4863988;29;20152;-93
2021/12/01 07:02:39;;;;;;;6.28;3.70;;;;;;;6.55;100.00;99044.75;4847835;29;20459;-93
2021/12/01 07:05:07;;;;;;;5.28;4.70;;;;;;;6.25;100.00;98996.38;4847046;29;20064;-92
2021/12/01 07:07:38;;;;;;;6.15;5.07;;;;;;;6.95;100.00;99083.69;4847408;29;20089;-92
2021/12/01 07:10:12;;;;;;;5.53;4.65;;;;;;;6.60;100.00;99050.28;4848818;29;20395;-92
2021/12/01 07:12:42;;;;;;;7.93;5.13;;;;;;;6.38;100.00;98992.59;4849545;29;20046;-92
2021/12/01 07:15:18;;;;;;;5.88;5.28;;;;;;;6.74;100.00;99050.84;4849523;29;20041;-92
2021/12/01 07:17:46;;;;;;;7.50;5.35;;;;;;;6.36;100.00;98973.19;4851312;29;20041;-92
2021/12/01 07:20:16;;;;;;;6.43;5.28;;;;;;;6.67;100.00;99039.38;4852691;29;20030;-91
2021/12/01 07:22:57;;;;;;;7.15;5.88;;;;;;;6.79;100.00;99033.97;4868518;29;20181;-91
2021/12/01 07:25:26;;;;;;;7.95;6.07;;;;;;;7.07;100.00;99080.97;4854735;29;20029;-92
2021/12/01 07:28:02;;;;;;;8.27;6.50;;;;;;;6.24;100.00;98959.69;4872957;29;20037;-92
2021/12/01 07:30:45;;;;;;;;;;;;;;;;;;;;;
2021/12/01 07:33:28;;;;;;;;;;;;;;;;;;;;;
2021/12/01 07:36:08;;;;;;;8.45;6.30;;;;;;;6.36;100.00;98973.97;4867901;29;20073;-93
2021/12/01 07:39:01;;;;;;;;;;;;;;;;;;;;;
2021/12/01 07:41:29;;;;;;;7.38;6.45;;;;;;;6.54;100.00;99000.00;4879486;29;20041;-91
2021/12/01 07:44:14;;;;;;;6.72;5.82;;;;;;;6.64;100.00;98975.16;4860930;29;20057;-91
2021/12/01 07:46:46;;;;;;;10.43;7.40;;;;;;;6.51;100.00;98984.31;4860713;29;20021;-92
2021/12/01 07:49:33;;;;;;;9.00;6.82;;;;;;;6.53;100.00;98970.63;4877371;29;20038;-93
2021/12/01 07:52:06;;;;;;;7.70;5.95;;;;;;;6.46;100.00;98974.22;4859731;29;20038;-92
2021/12/01 07:54:56;;;;;;;8.25;7.07;;;;;;;7.23;100.00;99057.84;4860315;29;20033;-93
2021/12/01 07:57:34;;;;;;;9.45;7.22;;;;;;;6.43;100.00;98936.16;4860553;29;20060;-92
2021/12/01 08:00:05;;;;;;;8.70;7.35;;;;;;;6.53;100.00;98940.97;4856235;29;20029;-93
2021/12/01 08:02:37;;;;;;;10.77;7.20;;;;;;;6.54;100.00;98954.22;4855811;29;20030;-93
2021/12/01 08:05:06;;;;;;;10.13;7.03;;;;;;;7.18;100.00;99039.69;4878579;29;20034;-92
2021/12/01 08:07:35;;;;;;;10.75;6.72;;;;;;;6.95;100.00;99003.63;4878805;29;20050;-90
2021/12/01 08:10:06;;;;;;;7.05;5.53;;;;;;;6.64;100.00;98929.34;4858074;29;20030;-93
2021/12/01 08:12:38;;;;;;;8.30;5.85;;;;;;;6.84;100.00;98978.31;4847406;29;20435;-92
2021/12/01 08:15:08;;;;;;;7.93;6.60;;;;;;;6.59;100.00;98921.97;4874368;29;20041;-93
2021/12/01 08:17:42;;;;;;;9.23;6.97;;;;;;;6.86;100.00;98978.06;4878304;29;20567;-93
2021/12/01 08:20:11;;;;;;;10.30;7.15;;;;;;;7.08;100.00;99007.13;4863447;29;20042;-93
2021/12/01 08:22:45;;;;;;;8.30;5.72;;;;;;;6.65;100.00;98920.22;4862381;29;20038;-94
2021/12/01 08:25:11;;;;;;;10.02;7.25;;;;;;;7.02;100.00;98981.91;4848082;29;20119;-93
2021/12/01 08:27:37;;;;;;;11.13;8.00;;;;;;;6.72;100.00;98926.31;4845265;29;20452;-93
2021/12/01 08:30:04;;;;;;;11.27;7.78;;;;;;;6.61;100.00;98925.25;4860750;29;20033;-93
2021/12/01 08:32:33;;;;;;;6.93;5.80;;;;;;;6.77;100.00;98929.09;4861088;29;20034;-93
2021/12/01 08:35:02;;;;;;;10.35;7.57;;;;;;;7.33;100.00;99026.50;4861047;29;20042;-93
2021/12/01 08:37:30;;;;;;;11.13;7.65;;;;;;;6.76;100.00;98942.81;4845379;29;20385;-93
2021/12/01 08:39:59;;;;;;;9.73;6.82;;;;;;;7.14;100.00;98966.50;4830477;29;20075;-92
2021/12/01 08:42:27;;;;;;;9.02;5.35;;;;;;;7.22;100.00;98983.38;4856358;29;20089;-94
2021/12/01 08:44:58;;;;;;;6.82;5.65;;;;;;;7.24;100.00;98992.06;4850979;29;20033;-92
2021/12/01 08:47:29;;;;;;;7.20;6.10;;;;;;;7.30;100.00;98980.31;4865946;29;20028;-91
2021/12/01 08:49:58;;;;;;;6.53;5.65;;;;;;;7.05;100.00;98945.56;4864542;29;20093;-93
2021/12/01 08:52:35;;;;;;;6.57;5.78;;;;;;;7.03;100.00;98908.06;4849434;29;20045;-94
2021/12/01 08:55:42;;;;;;;7.30;5.32;;;;;;;7.61;100.00;99019.50;4849283;29;20031;-94
2021/12/01 08:58:16;;;;;;;5.97;5.10;;;;;;;7.07;100.00;98951.53;4864361;29;20058;-92
2021/12/01 09:01:04;;;;;;;5.15;4.65;;;;;;;7.12;100.00;98919.28;4849583;29;20384;-94
2021/12/01 09:03:54;;;;;;;7.45;4.53;;;;;;;7.10;100.00;98914.13;4849038;29;20041;-91
2021/12/01 09:06:28;;;;;;;4.90;4.40;;;;;;;7.36;100.00;98955.06;4849765;29;20037;-93
2021/12/01 09:09:35;;;;;;;3.92;3.63;;;;;;;7.17;100.00;98930.16;4848549;29;20491;-93
2021/12/01 09:14:52;;;;;;;4.63;3.63;;;;;;;7.41;100.00;98959.75;4867857;29;20033;-93
2021/12/01 09:17:25;;;;;;;3.88;3.47;;;;;;;6.98;100.00;98913.34;4852953;29;20132;-93
2021/12/01 09:20:03;;;;;;;3.60;3.22;;;;;;;7.59;100.00;98994.66;4863969;29;20049;-92
2021/12/01 09:22:56;;;;;;;3.50;3.20;;;;;;;6.89;100.00;98904.81;4877563;29;20029;-94
2021/12/01 09:25:22;;;;;;;;;;;;;;;7.60;100.00;99019.75;4864312;29;20124;-92
2021/12/01 09:28:00;;;;;;;3.72;3.10;;;;;;;7.34;100.00;98987.69;4863516;29;19962;-92
2021/12/01 09:30:28;;;;;;;3.90;3.28;;;;;;;7.12;100.00;98944.38;4862692;29;20026;-92
2021/12/01 09:32:53;;;;;;;4.82;3.85;;;;;;;7.48;100.00;99065.66;4847720;29;20508;-92
2021/12/01 09:35:25;;;;;;;4.05;3.70;;;;;;;6.83;100.00;98930.00;4847174;29;20030;-92
2021/12/01 09:37:58;;;;;;;4.05;3.60;;;;;;;6.66;100.00;98925.38;4846560;29;20047;-92
2021/12/01 09:40:26;;;;;;;8.68;4.18;;;;;;;7.41;100.00;99038.81;4847509;29;20057;-94
2021/12/01 09:43:03;;;;;;;7.32;4.57;;;;;;;6.60;100.00;98923.63;4847269;29;20140;-93
2021/12/01 09:45:38;;;;;;;6.32;4.05;;;;;;;6.94;100.00;98993.88;4847293;29;20041;-93
2021/12/01 09:48:09;;;;;;;6.05;3.70;;;;;;;6.90;100.00;98997.31;4847993;29;20152;-92
2021/12/01 09:50:53;;;;;;;6.53;3.70;;;;;;;6.76;100.00;98988.63;4847471;29;20033;-92
2021/12/01 09:53:21;;;;;;;12.93;4.30;;;;;;;6.93;100.00;99021.09;4862975;29;20041;-92
2021/12/01 09:55:56;;;;;;;13.05;4.22;;;;;;;6.57;100.00;98959.13;4862952;29;20037;-92
2021/12/01 09:58:30;;;;;;;11.07;4.05;;;;;;;6.64;100.00;98953.59;4862821;29;20041;-92
2021/12/01 10:01:12;;;;;;;10.80;4.20;;;;;;;6.61;100.00;98957.56;4848013;29;20085;-92
2021/12/01 10:03:43;;;;;;;12.65;4.72;;;;;;;6.95;100.00;99006.31;4847663;29;20394;-92
2021/12/01 10:06:29;;;;;;;10.30;4.38;;;;;;;6.43;100.00;98928.09;4847603;29;20420;-92
2021/12/01 10:08:56;;;;;;;13.90;3.55;;;;;;;7.11;100.00;99045.19;4863278;29;20029;-92
2021/12/01 10:11:39;;;;;;;10.32;3.08;;;;;;;6.47;100.00;98958.91;4847271;29;20121;-93
2021/12/01 10:14:18;;;;;;;11.43;3.10;;;;;;;7.04;100.00;99041.81;4847006;29;20044;-92
2021/12/01 10:17:03;;;;;;;14.13;3.10;;;;;;;6.64;100.00;98983.25;4846972;29;20136;-92
2021/12/01 10:20:17;;;;;;;14.32;3.40;;;;;;;7.06;100.00;99042.41;4846670;29;20040;-92
2021/12/01 10:23:26;;;;;;;14.02;2.97;;;;;;;7.10;100.00;99042.75;4862109;29;20040;-92
2021/12/01 10:26:10;;;;;;;12.65;2.67;;;;;;;7.23;100.00;99041.69;4846658;29;20033;-92
2021/12/01 10:29:12;;;;;;;;;;;;;;;;;;;;;
2021/12/01 10:31:51;;;;;;;12.20;2.17;;;;;;;6.67;100.00;98953.13;4863352;29;20057;-92
2021/12/01 10:34:58;;;;;;;11.60;2.28;;;;;;;6.85;100.00;98969.16;4847063;29;20058;-93
2021/12/01 10:40:15;;;;;;;8.25;1.60;;;;;;;7.23;100.00;99042.47;4863383;29;20041;-93
2021/12/01 10:43:21;;;;;;;;;;;;;;;;;;;;;
2021/12/01 10:46:40;;;;;;;8.63;1.55;;;;;;;6.49;100.00;98933.34;4863898;29;20040;-93
2021/12/01 10:57:01;;;;;;;4.60;1.20;;;;;;;6.73;100.00;98935.19;4859102;29;20073;-93
2021/12/01 11:00:06;;;;;;;13.70;1.80;;;;;;;6.80;100.00;98933.19;4816114;29;20048;-93
2021/12/01 11:03:30;;;;;;;8.40;2.00;;;;;;;6.98;100.00;98956.47;4862674;29;20045;-93
2021/12/01 11:13:19;;;;;;;;;;;;;;;;;;;;;
2021/12/01 11:19:03;;;;;;;5.63;1.45;;;;;;;6.75;97.99;98951.97;4847635;29;20057;-91
2021/12/01 11:22:22;;;;;;;7.38;1.45;;;;;;;6.74;98.27;98955.72;4861495;29;20093;-94
2021/12/01 11:29:33;;;;;;;10.10;1.75;;;;;;;7.20;97.48;99040.25;4876881;29;20044;-93
2021/12/01 11:32:09;;;;;;;5.38;1.40;;;;;;;6.48;97.37;98952.44;4824162;29;20064;-93
2021/12/01 11:34:39;;;;;;;9.65;1.90;;;;;;;6.93;97.79;99011.13;4823969;29;20485;-93
2021/12/01 11:37:08;;;;;;;7.68;1.48;;;;;;;6.91;97.15;98997.06;4838471;29;20458;-93
2021/12/01 11:39:45;;;;;;;11.50;1.70;;;;;;;6.91;97.52;98998.91;4866994;29;20120;-92
2021/12/01 11:42:19;;;;;;;7.65;1.40;;;;;;;6.90;95.46;99002.69;4851415;29;20041;-93
2021/12/01 11:44:45;;;;;;;8.00;1.58;;;;;;;6.62;95.89;98931.47;4832690;29;20109;-92
2021/12/01 11:47:21;;;;;;;10.93;1.67;;;;;;;7.05;97.00;98991.41;4848165;29;20042;-93
2021/12/01 11:49:52;;;;;;;9.32;1.65;;;;;;;7.32;95.82;99021.34;4848262;29;20041;-93
2021/12/01 11:52:39;;;;;;;6.22;1.50;;;;;;;7.38;95.94;99026.63;4863771;29;20101;-93
2021/12/01 11:55:23;;;;;;;6.95;1.95;;;;;;;6.75;95.12;98930.41;4848834;29;20360;-94
2021/12/01 11:58:09;;;;;;;;;;;;;;;;;;;;;
2021/12/01 12:01:36;;;;;;;;;;;;;;;;;;;;;
2021/12/01 12:04:27;;;;;;;6.05;1.25;;;;;;;7.25;95.72;99044.94;4826384;29;20051;-94
2021/12/01 12:07:15;;;;;;;8.30;1.48;;;;;;;6.56;96.41;98925.16;4863425;29;20049;-94
2021/12/01 12:13:52;;;;;;;;;;;;;;;;;;;;;
2021/12/01 12:16:42;;;;;;;12.27;1.73;;;;;;;6.65;95.17;98953.38;4827434;29;20050;-95
2021/12/01 12:19:48;;;;;;;12.07;1.95;;;;;;;7.27;96.84;99046.34;4815137;29;20042;-94
2021/12/01 12:22:24;;;;;;;9.25;1.83;;;;;;;7.04;95.41;99047.19;4815129;29;20448;-94
2021/12/01 12:25:15;;;;;;;;;;;;;;;;;;;;;
2021/12/01 12:27:53;;;;;;;9.57;1.50;;;;;;;7.27;95.64;99048.25;4816928;29;20423;-95
2021/12/01 12:30:41;;;;;;;9.38;1.88;;;;;;;7.29;96.22;99043.41;4799769;29;20038;-94
2021/12/01 12:34:04;;;;;;;12.02;2.25;;;;;;;6.70;95.57;98943.75;4814865;29;20442;-94
2021/12/01 12:36:40;;;;;;;8.07;1.80;;;;;;;6.93;95.03;98984.16;4829659;29;20488;-93
2021/12/01 12:39:13;;;;;;;10.73;1.77;;;;;;;6.68;95.25;98931.31;4814655;29;20424;-94
2021/12/01 12:42:11;;;;;;;6.55;1.70;;;;;;;6.75;96.00;98952.78;4814808;29;20038;-94
2021/12/01 12:54:07;;;;;;;8.55;1.80;;;;;;;7.40;95.91;99041.75;4835284;29;20488;-94
2021/12/01 12:56:39;;;;;;;9.05;1.80;;;;;;;7.53;95.38;99030.69;4829368;29;20048;-92
2021/12/01 12:59:26;;;;;;;9.32;2.00;;;;;;;7.66;96.14;99045.78;4828934;29;20034;-94
2021/12/01 13:02:23;;;;;;;10.75;1.88;;;;;;;7.67;94.51;99050.13;4828490;29;20041;-94
2021/12/01 13:04:55;;;;;;;7.47;1.40;;;;;;;7.58;94.26;99049.69;4828065;29;20461;-94
2021/12/01 13:07:44;;;;;;;9.02;1.85;;;;;;;7.66;94.25;99027.72;4829471;29;20137;-93
2021/12/01 13:10:25;;;;;;;8.68;1.65;;;;;;;6.98;94.65;98946.53;4812471;29;20415;-91
2021/12/01 13:13:35;;;;;;;10.55;1.60;;;;;;;7.07;94.36;98965.84;4843858;29;20469;-93
2021/12/01 13:16:13;;;;;;;;;;;;;;;;;;;;;
2021/12/01 13:19:03;;;;;;;;;;;;;;;;;;;;;